createdAt,value
2023-03-13T00:01:21.359Z,86.50
2023-03-13T00:03:48.469Z,86.50
2023-03-13T00:06:15.762Z,86.40
2023-03-13T00:08:42.761Z,86.50
2023-03-13T00:11:11.240Z,86.50
2023-03-13T00:13:38.265Z,86.40
2023-03-13T00:16:10.246Z,86.30
2023-03-13T00:18:37.047Z,86.30
2023-03-13T00:21:06.541Z,86.40
2023-03-13T00:23:34.566Z,86.30
2023-03-13T00:26:06.838Z,86.30
2023-03-13T00:28:34.590Z,86.30
2023-03-13T00:31:03.481Z,86.40
2023-03-13T00:33:32.369Z,86.30
2023-03-13T00:36:04.401Z,86.20
2023-03-13T00:38:31.882Z,86.30
2023-03-13T00:41:12.353Z,86.20
2023-03-13T00:43:40.650Z,86.30
2023-03-13T00:46:07.628Z,86.20
2023-03-13T00:48:34.626Z,86.10
2023-03-13T00:51:02.109Z,86.20
2023-03-13T00:53:28.835Z,86.10
2023-03-13T00:55:58.299Z,86.10
2023-03-13T00:58:26.496Z,86.10
2023-03-13T01:00:53.814Z,86.10
2023-03-13T01:03:22.074Z,86.10
2023-03-13T01:05:59.276Z,86.10
2023-03-13T01:08:26.405Z,86.10
2023-03-13T01:11:02.386Z,86.10
2023-03-13T01:13:30.044Z,86.10
2023-03-13T01:15:56.709Z,86.10
2023-03-13T01:18:23.430Z,86.00
2023-03-13T01:20:49.992Z,86.00
2023-03-13T01:23:16.638Z,85.90
2023-03-13T01:25:43.231Z,86.00
2023-03-13T01:28:09.797Z,86.00
2023-03-13T01:30:36.484Z,85.90
2023-03-13T01:33:03.241Z,85.90
2023-03-13T01:35:29.870Z,86.00
2023-03-13T01:37:56.472Z,85.90
2023-03-13T01:40:23.098Z,85.90
2023-03-13T01:42:50.680Z,85.90
2023-03-13T01:45:51.085Z,85.90
2023-03-13T01:48:17.774Z,85.90
2023-03-13T01:50:44.510Z,85.90
2023-03-13T01:53:11.646Z,85.90
2023-03-13T01:55:38.599Z,85.90
2023-03-13T01:58:05.434Z,85.90
2023-03-13T02:00:35.824Z,85.90
2023-03-13T02:03:11.328Z,85.90
2023-03-13T02:05:39.878Z,85.80
2023-03-13T02:08:18.997Z,85.90
2023-03-13T02:11:04.183Z,85.80
2023-03-13T02:13:30.729Z,85.70
2023-03-13T02:15:57.605Z,85.80
2023-03-13T02:18:25.865Z,85.70
2023-03-13T02:21:01.863Z,85.70
2023-03-13T02:23:39.139Z,85.70
2023-03-13T02:26:06.516Z,85.70
2023-03-13T02:28:39.094Z,85.70
2023-03-13T02:31:06.618Z,85.70
2023-03-13T02:33:38.579Z,85.70
2023-03-13T02:36:06.862Z,85.70
2023-03-13T02:38:37.997Z,85.70
2023-03-13T02:41:06.021Z,85.60
2023-03-13T02:43:35.580Z,85.60
2023-03-13T02:46:09.879Z,85.60
2023-03-13T02:48:47.742Z,85.70
2023-03-13T02:51:36.235Z,85.60
2023-03-13T02:54:09.568Z,85.60
2023-03-13T02:56:38.864Z,85.60
2023-03-13T02:59:06.724Z,85.60
2023-03-13T03:01:33.305Z,85.60
2023-03-13T03:03:59.936Z,85.60
2023-03-13T03:06:26.534Z,85.50
2023-03-13T03:08:53.057Z,85.50
2023-03-13T03:11:19.793Z,85.40
2023-03-13T03:13:46.438Z,85.40
2023-03-13T03:16:20.684Z,85.50
2023-03-13T03:18:47.266Z,85.50
2023-03-13T03:21:14.028Z,85.40
2023-03-13T03:23:40.760Z,85.30
2023-03-13T03:26:08.229Z,85.30
2023-03-13T03:28:35.026Z,85.30
2023-03-13T03:31:10.664Z,85.40
2023-03-13T03:33:38.468Z,85.30
2023-03-13T03:36:11.022Z,85.40
2023-03-13T03:38:39.601Z,85.30
2023-03-13T03:41:07.299Z,85.30
2023-03-13T03:43:34.239Z,85.10
2023-03-13T03:46:01.257Z,85.20
2023-03-13T03:48:28.145Z,85.20
2023-03-13T03:50:54.813Z,85.30
2023-03-13T03:53:21.457Z,85.20
2023-03-13T03:55:48.096Z,85.20
2023-03-13T03:58:14.655Z,85.20
2023-03-13T04:00:44.733Z,85.20
2023-03-13T04:03:11.555Z,85.10
2023-03-13T04:05:38.454Z,85.10
2023-03-13T04:08:05.532Z,85.10
2023-03-13T04:10:32.169Z,85.10
2023-03-13T04:12:58.809Z,85.10
2023-03-13T04:15:25.434Z,85.10
2023-03-13T04:17:52.110Z,85.10
2023-03-13T04:20:18.917Z,85.10
2023-03-13T04:22:45.496Z,85.10
2023-03-13T04:25:12.041Z,85.10
2023-03-13T04:27:38.625Z,85.10
2023-03-13T04:30:05.772Z,85.00
2023-03-13T04:32:32.419Z,85.10
2023-03-13T04:34:59.068Z,85.00
2023-03-13T04:37:25.662Z,85.10
2023-03-13T04:39:52.266Z,85.00
2023-03-13T04:42:18.865Z,85.00
2023-03-13T04:44:45.470Z,85.00
2023-03-13T04:47:12.056Z,85.00
2023-03-13T04:49:38.625Z,85.00
2023-03-13T04:52:05.545Z,85.00
2023-03-13T04:54:32.239Z,85.00
2023-03-13T04:56:58.868Z,85.00
2023-03-13T04:59:25.466Z,85.00
2023-03-13T05:01:52.051Z,85.00
2023-03-13T05:04:18.720Z,85.00
2023-03-13T05:06:45.333Z,85.00
2023-03-13T05:09:11.986Z,85.00
2023-03-13T05:11:40.234Z,85.00
2023-03-13T05:14:08.950Z,85.00
2023-03-13T05:16:35.483Z,84.90
2023-03-13T05:19:02.229Z,85.00
2023-03-13T05:21:28.893Z,85.00
2023-03-13T05:23:55.480Z,85.00
2023-03-13T05:26:22.032Z,85.00
2023-03-13T05:28:48.570Z,85.00
2023-03-13T05:31:15.136Z,85.00
2023-03-13T05:33:41.695Z,85.00
2023-03-13T05:36:08.631Z,84.90
2023-03-13T05:38:35.471Z,84.90
2023-03-13T05:41:02.054Z,84.90
2023-03-13T05:43:28.674Z,84.90
2023-03-13T05:45:55.272Z,85.00
2023-03-13T05:48:21.947Z,84.90
2023-03-13T05:50:48.574Z,85.60
2023-03-13T05:53:15.100Z,85.60
2023-03-13T05:55:42.607Z,85.60
2023-03-13T05:58:09.165Z,85.50
2023-03-13T06:00:35.919Z,85.50
2023-03-13T06:03:02.641Z,85.50
2023-03-13T06:05:29.264Z,85.50
2023-03-13T06:07:55.820Z,85.40
2023-03-13T06:10:22.399Z,85.50
2023-03-13T06:12:55.971Z,85.30
2023-03-13T06:15:23.531Z,85.40
2023-03-13T06:17:50.093Z,85.40
2023-03-13T06:20:16.945Z,85.40
2023-03-13T06:22:43.665Z,85.40
2023-03-13T06:25:10.694Z,85.30
2023-03-13T06:27:37.270Z,85.30
2023-03-13T06:30:04.795Z,85.30
2023-03-13T06:32:31.446Z,85.30
2023-03-13T06:34:58.106Z,85.30
2023-03-13T06:37:24.684Z,85.20
2023-03-13T06:39:51.270Z,85.20
2023-03-13T06:42:18.822Z,85.30
2023-03-13T06:44:45.459Z,85.20
2023-03-13T06:47:14.314Z,85.20
2023-03-13T06:49:41.944Z,85.20
2023-03-13T06:52:08.602Z,85.20
2023-03-13T06:54:35.823Z,85.20
2023-03-13T06:57:02.409Z,85.20
2023-03-13T06:59:29.165Z,85.20
2023-03-13T07:01:55.751Z,85.10
2023-03-13T07:04:22.410Z,85.20
2023-03-13T07:06:49.075Z,85.10
2023-03-13T07:09:15.605Z,85.90
2023-03-13T07:11:42.223Z,85.10
2023-03-13T07:14:16.549Z,85.20
2023-03-13T07:16:45.145Z,85.20
2023-03-13T07:19:12.087Z,85.10
2023-03-13T07:21:38.742Z,85.10
2023-03-13T07:24:05.693Z,85.10
2023-03-13T07:26:32.381Z,85.20
2023-03-13T07:28:59.228Z,85.10
2023-03-13T07:31:26.146Z,85.10
2023-03-13T07:33:56.515Z,85.20
2023-03-13T07:36:23.715Z,85.20
2023-03-13T07:38:51.580Z,85.20
2023-03-13T07:41:19.457Z,85.10
2023-03-13T07:43:46.579Z,85.10
2023-03-13T07:46:18.456Z,85.10
2023-03-13T07:48:45.184Z,85.10
2023-03-13T07:51:18.343Z,85.10
2023-03-13T07:53:47.626Z,85.10
2023-03-13T07:56:16.655Z,85.10
2023-03-13T07:58:44.304Z,85.10
2023-03-13T08:01:27.386Z,85.10
2023-03-13T08:03:56.150Z,85.10
2023-03-13T08:06:26.964Z,85.10
2023-03-13T08:08:56.558Z,85.10
2023-03-13T08:11:25.166Z,85.10
2023-03-13T08:13:55.376Z,85.10
2023-03-13T08:16:24.209Z,85.20
2023-03-13T08:18:54.716Z,85.20
2023-03-13T08:21:27.328Z,85.10
2023-03-13T08:23:56.671Z,85.10
2023-03-13T08:26:27.261Z,85.10
2023-03-13T08:28:56.795Z,85.10
2023-03-13T08:31:26.248Z,85.10
2023-03-13T08:33:53.414Z,85.10
2023-03-13T08:36:28.933Z,85.20
2023-03-13T08:38:59.451Z,85.20
2023-03-13T08:41:32.100Z,85.20
2023-03-13T08:43:59.197Z,85.20
2023-03-13T08:46:26.053Z,85.20
2023-03-13T08:48:53.819Z,85.20
2023-03-13T08:51:22.802Z,85.20
2023-03-13T08:53:49.592Z,85.20
2023-03-13T08:56:19.291Z,85.30
2023-03-13T08:58:50.455Z,85.30
2023-03-13T09:01:17.282Z,85.30
2023-03-13T09:03:44.248Z,85.30
2023-03-13T09:06:11.683Z,85.30
2023-03-13T09:08:39.965Z,85.30
2023-03-13T09:11:10.231Z,85.40
2023-03-13T09:13:39.596Z,85.50
2023-03-13T09:16:08.800Z,85.40
2023-03-13T09:18:36.071Z,85.40
2023-03-13T09:21:05.416Z,85.40
2023-03-13T09:23:32.008Z,85.50
2023-03-13T09:25:58.624Z,85.40
2023-03-13T09:28:26.677Z,85.30
2023-03-13T09:30:53.670Z,85.40
2023-03-13T09:33:23.918Z,85.40
2023-03-13T09:35:51.188Z,85.90
2023-03-13T09:38:19.782Z,88.80
2023-03-13T09:41:04.854Z,90.20
2023-03-13T09:43:54.649Z,90.50
2023-03-13T09:46:39.380Z,90.20
2023-03-13T09:49:26.207Z,90.10
2023-03-13T09:52:15.172Z,90.00
2023-03-13T09:55:03.884Z,89.90
2023-03-13T09:57:50.242Z,89.50
2023-03-13T10:00:24.907Z,89.20
2023-03-13T10:03:05.494Z,88.80
2023-03-13T10:05:33.202Z,88.80
2023-03-13T10:08:16.063Z,88.50
2023-03-13T10:10:57.746Z,88.40
2023-03-13T10:13:41.928Z,88.30
2023-03-13T10:16:19.358Z,88.20
2023-03-13T10:18:52.668Z,88.00
2023-03-13T10:21:22.201Z,87.90
2023-03-13T10:24:00.907Z,87.90
2023-03-13T10:26:34.227Z,87.80
2023-03-13T10:29:28.036Z,87.80
2023-03-13T10:32:01.186Z,87.60
2023-03-13T10:34:30.256Z,87.60
2023-03-13T10:37:01.840Z,87.50
2023-03-13T10:39:29.898Z,87.50
2023-03-13T10:42:11.018Z,87.50
2023-03-13T10:44:37.803Z,87.30
2023-03-13T10:47:04.948Z,87.30
2023-03-13T10:49:32.429Z,87.30
2023-03-13T10:52:04.610Z,87.30
2023-03-13T10:54:37.293Z,87.20
2023-03-13T10:57:31.817Z,87.10
2023-03-13T10:59:59.397Z,87.10
2023-03-13T11:02:35.196Z,86.90
2023-03-13T11:05:22.458Z,87.10
2023-03-13T11:07:49.806Z,86.90
2023-03-13T11:10:21.797Z,87.00
2023-03-13T11:12:53.730Z,86.90
2023-03-13T11:15:51.802Z,86.90
2023-03-13T11:18:29.201Z,86.80
2023-03-13T11:21:08.661Z,86.90
2023-03-13T11:23:49.855Z,86.80
2023-03-13T11:26:19.232Z,86.80
2023-03-13T11:29:01.475Z,86.80
2023-03-13T11:31:46.574Z,86.70
2023-03-13T11:34:40.496Z,86.70
2023-03-13T11:37:13.392Z,86.80
2023-03-13T11:40:06.889Z,86.70
2023-03-13T11:42:53.670Z,86.70
2023-03-13T11:46:02.054Z,86.70
2023-03-13T11:49:18.966Z,86.70
2023-03-13T11:52:02.869Z,86.70
2023-03-13T11:54:43.759Z,86.60
2023-03-13T11:57:25.947Z,86.60
2023-03-13T12:00:17.645Z,86.60
2023-03-13T12:03:11.642Z,86.70
2023-03-13T12:05:55.505Z,86.70
2023-03-13T12:08:36.117Z,86.70
2023-03-13T12:12:04.487Z,86.50
2023-03-13T12:14:37.554Z,86.70
2023-03-13T12:17:09.314Z,86.60
2023-03-13T12:19:55.347Z,86.60
2023-03-13T12:22:35.536Z,86.60
2023-03-13T12:25:25.084Z,86.60
2023-03-13T12:28:04.736Z,86.60
2023-03-13T12:30:41.010Z,87.40
2023-03-13T12:33:26.401Z,88.20
2023-03-13T12:36:16.209Z,88.20
2023-03-13T12:38:53.924Z,88.20
2023-03-13T12:41:41.962Z,88.10
2023-03-13T12:44:12.965Z,88.00
2023-03-13T12:46:45.694Z,88.70
2023-03-13T12:49:36.774Z,89.40
2023-03-13T12:52:34.550Z,89.30
2023-03-13T12:55:23.624Z,89.20
2023-03-13T12:58:10.546Z,89.00
2023-03-13T13:00:40.441Z,89.20
2023-03-13T13:03:18.826Z,89.20
2023-03-13T13:06:06.125Z,89.20
2023-03-13T13:09:08.911Z,89.10
2023-03-13T13:11:46.099Z,89.00
2023-03-13T13:14:18.676Z,88.80
2023-03-13T13:17:16.540Z,88.80
2023-03-13T13:19:44.477Z,88.60
2023-03-13T13:22:39.038Z,88.60
2023-03-13T13:25:11.684Z,88.40
2023-03-13T13:27:38.185Z,88.40
2023-03-13T13:30:16.991Z,88.40
2023-03-13T13:33:13.838Z,88.30
2023-03-13T13:35:40.484Z,88.20
2023-03-13T13:38:19.093Z,88.10
2023-03-13T13:41:05.912Z,88.00
2023-03-13T13:43:44.199Z,88.00
2023-03-13T13:46:33.102Z,88.00
2023-03-13T13:49:21.668Z,88.00
2023-03-13T13:52:05.914Z,88.00
2023-03-13T13:54:33.640Z,88.00
2023-03-13T13:57:20.164Z,87.90
2023-03-13T14:00:25.018Z,87.90
2023-03-13T14:02:56.784Z,88.00
2023-03-13T14:05:32.836Z,87.90
2023-03-13T14:08:16.043Z,87.90
2023-03-13T14:11:07.605Z,87.90
2023-03-13T14:13:34.159Z,87.90
2023-03-13T14:16:24.863Z,87.90
2023-03-13T14:18:52.519Z,87.90
2023-03-13T14:21:23.928Z,87.90
2023-03-13T14:23:50.968Z,88.60
2023-03-13T14:26:22.099Z,87.70
2023-03-13T14:28:57.555Z,87.90
2023-03-13T14:31:27.513Z,87.90
2023-03-13T14:33:55.064Z,87.90
2023-03-13T14:36:21.634Z,87.80
2023-03-13T14:38:55.997Z,87.80
2023-03-13T14:41:36.728Z,87.90
2023-03-13T14:44:19.792Z,87.80
2023-03-13T14:46:47.073Z,87.80
2023-03-13T14:49:26.131Z,87.70
2023-03-13T14:52:04.836Z,87.70
2023-03-13T14:54:34.968Z,87.70
2023-03-13T14:57:12.448Z,87.70
2023-03-13T14:59:39.268Z,87.70
2023-03-13T15:02:32.257Z,87.70
2023-03-13T15:05:00.002Z,87.70
2023-03-13T15:07:48.324Z,87.60
2023-03-13T15:10:33.219Z,87.50
2023-03-13T15:13:13.495Z,87.50
2023-03-13T15:15:40.048Z,87.40
2023-03-13T15:18:25.162Z,87.40
2023-03-13T15:20:57.086Z,87.50
2023-03-13T15:23:23.719Z,87.40
2023-03-13T15:25:50.248Z,87.40
2023-03-13T15:28:22.302Z,87.40
2023-03-13T15:30:51.540Z,87.40
2023-03-13T15:33:23.658Z,87.40
2023-03-13T15:35:50.929Z,87.40
2023-03-13T15:38:23.504Z,87.40
2023-03-13T15:40:50.635Z,87.40
2023-03-13T15:43:17.985Z,87.40
2023-03-13T15:45:47.679Z,87.40
2023-03-13T15:48:23.329Z,87.30
2023-03-13T15:50:55.152Z,87.30
2023-03-13T15:53:28.376Z,87.30
2023-03-13T15:55:56.650Z,87.30
2023-03-13T15:58:23.843Z,87.40
2023-03-13T16:00:50.510Z,87.20
2023-03-13T16:03:20.003Z,87.20
2023-03-13T16:05:49.551Z,87.30
2023-03-13T16:08:34.210Z,87.30
2023-03-13T16:11:01.824Z,88.00
2023-03-13T16:13:28.385Z,87.20
2023-03-13T16:15:55.074Z,87.40
2023-03-13T16:18:24.326Z,87.30
2023-03-13T16:20:52.069Z,87.30
2023-03-13T16:23:18.719Z,87.30
2023-03-13T16:25:47.207Z,87.20
2023-03-13T16:28:14.954Z,87.20
2023-03-13T16:30:43.468Z,87.40
2023-03-13T16:33:11.138Z,87.20
2023-03-13T16:35:38.227Z,87.30
2023-03-13T16:38:08.176Z,87.20
2023-03-13T16:40:35.018Z,87.30
2023-03-13T16:43:02.603Z,87.30
2023-03-13T16:45:29.225Z,87.20
2023-03-13T16:47:55.819Z,87.20
2023-03-13T16:50:22.852Z,87.20
2023-03-13T16:52:50.528Z,87.20
2023-03-13T16:55:18.341Z,87.30
2023-03-13T16:57:45.398Z,87.20
2023-03-13T17:00:17.978Z,87.20
2023-03-13T17:02:44.852Z,87.30
2023-03-13T17:05:15.624Z,87.40
2023-03-13T17:07:44.146Z,87.40
2023-03-13T17:10:32.818Z,87.20
2023-03-13T17:13:00.248Z,87.40
2023-03-13T17:15:28.595Z,87.20
2023-03-13T17:17:55.879Z,87.30
2023-03-13T17:20:25.151Z,87.40
2023-03-13T17:22:52.281Z,87.20
2023-03-13T17:25:18.938Z,87.40
2023-03-13T17:27:49.502Z,87.50
2023-03-13T17:30:20.695Z,87.60
2023-03-13T17:32:48.249Z,87.70
2023-03-13T17:35:15.128Z,87.90
2023-03-13T17:37:42.954Z,87.90
2023-03-13T17:40:21.557Z,88.70
2023-03-13T17:42:48.486Z,88.30
2023-03-13T17:45:15.671Z,88.30
2023-03-13T17:47:42.625Z,88.50
2023-03-13T17:50:21.802Z,88.50
2023-03-13T17:52:48.845Z,88.70
2023-03-13T17:55:15.691Z,88.70
2023-03-13T17:57:43.851Z,88.90
2023-03-13T18:00:26.090Z,88.90
2023-03-13T18:02:52.847Z,89.00
2023-03-13T18:05:19.653Z,89.00
2023-03-13T18:07:47.337Z,89.10
2023-03-13T18:10:27.267Z,89.20
2023-03-13T18:12:54.679Z,90.00
2023-03-13T18:15:23.515Z,89.30
2023-03-13T18:17:50.836Z,89.50
2023-03-13T18:20:20.897Z,89.50
2023-03-13T18:22:47.918Z,89.50
2023-03-13T18:25:14.792Z,89.50
2023-03-13T18:27:41.691Z,89.50
2023-03-13T18:30:15.826Z,89.50
2023-03-13T18:32:42.599Z,89.50
2023-03-13T18:35:09.914Z,89.50
2023-03-13T18:37:36.880Z,89.30
2023-03-13T18:40:07.452Z,89.30
2023-03-13T18:42:34.139Z,89.20
2023-03-13T18:45:00.785Z,89.90
2023-03-13T18:47:28.505Z,89.10
2023-03-13T18:49:55.652Z,89.10
2023-03-13T18:52:22.321Z,88.90
2023-03-13T18:54:51.185Z,88.90
2023-03-13T18:57:19.880Z,88.90
2023-03-13T18:59:46.896Z,88.90
2023-03-13T19:02:18.289Z,88.70
2023-03-13T19:04:47.222Z,88.70
2023-03-13T19:07:16.981Z,89.30
2023-03-13T19:09:46.335Z,90.20
2023-03-13T19:12:15.339Z,90.60
2023-03-13T19:14:42.508Z,90.10
2023-03-13T19:17:20.176Z,90.00
2023-03-13T19:19:46.927Z,90.10
2023-03-13T19:22:14.110Z,90.10
2023-03-13T19:24:40.877Z,90.10
2023-03-13T19:27:10.716Z,90.10
2023-03-13T19:29:37.437Z,90.10
2023-03-13T19:32:07.243Z,90.20
2023-03-13T19:34:34.071Z,90.20
2023-03-13T19:37:15.305Z,90.30
2023-03-13T19:39:42.285Z,90.30
2023-03-13T19:42:10.086Z,90.30
2023-03-13T19:44:43.733Z,90.40
2023-03-13T19:47:15.570Z,90.40
2023-03-13T19:49:42.404Z,90.40
2023-03-13T19:52:09.162Z,90.40
2023-03-13T19:54:39.297Z,90.40
2023-03-13T19:57:06.107Z,90.40
2023-03-13T19:59:35.634Z,90.40
2023-03-13T20:02:05.309Z,90.40
2023-03-13T20:04:36.423Z,90.40
2023-03-13T20:07:08.851Z,90.40
2023-03-13T20:09:36.767Z,90.30
2023-03-13T20:12:04.139Z,90.30
2023-03-13T20:14:35.884Z,90.20
2023-03-13T20:17:06.280Z,90.20
2023-03-13T20:19:36.628Z,90.50
2023-03-13T20:22:05.873Z,90.10
2023-03-13T20:24:35.810Z,90.10
2023-03-13T20:27:03.412Z,90.10
2023-03-13T20:29:33.977Z,90.00
2023-03-13T20:32:01.748Z,90.00
2023-03-13T20:34:32.167Z,90.00
2023-03-13T20:37:00.308Z,90.00
2023-03-13T20:39:28.879Z,89.90
2023-03-13T20:41:56.393Z,90.30
2023-03-13T20:44:23.633Z,89.80
2023-03-13T20:46:50.376Z,89.80
2023-03-13T20:49:17.147Z,89.70
2023-03-13T20:51:43.862Z,89.70
2023-03-13T20:54:10.877Z,89.80
2023-03-13T20:56:37.901Z,89.80
2023-03-13T20:59:10.578Z,89.80
2023-03-13T21:01:37.715Z,89.90
2023-03-13T21:04:04.620Z,89.70
2023-03-13T21:06:31.425Z,89.70
2023-03-13T21:08:58.123Z,89.70
2023-03-13T21:11:25.601Z,89.60
2023-03-13T21:13:52.435Z,89.50
2023-03-13T21:16:20.109Z,89.50
2023-03-13T21:18:47.538Z,89.50
2023-03-13T21:21:19.093Z,89.50
2023-03-13T21:23:46.759Z,89.40
2023-03-13T21:26:14.830Z,89.30
2023-03-13T21:28:41.685Z,89.40
2023-03-13T21:31:14.300Z,89.30
2023-03-13T21:33:42.093Z,89.30
2023-03-13T21:36:10.396Z,89.30
2023-03-13T21:38:37.438Z,89.30
2023-03-13T21:41:09.607Z,89.30
2023-03-13T21:43:37.240Z,89.20
2023-03-13T21:46:03.955Z,89.10
2023-03-13T21:48:30.613Z,89.10
2023-03-13T21:50:57.303Z,89.10
2023-03-13T21:53:23.924Z,89.10
2023-03-13T21:55:51.798Z,89.10
2023-03-13T21:58:18.722Z,89.10
2023-03-13T22:00:45.540Z,89.00
2023-03-13T22:03:12.506Z,88.90
2023-03-13T22:05:43.709Z,88.90
2023-03-13T22:08:11.162Z,88.90
2023-03-13T22:10:38.472Z,88.90
2023-03-13T22:13:09.619Z,88.80
2023-03-13T22:15:36.135Z,88.80
2023-03-13T22:18:02.783Z,88.80
2023-03-13T22:20:29.453Z,88.70
2023-03-13T22:22:56.673Z,88.70
2023-03-13T22:25:23.310Z,88.70
2023-03-13T22:27:49.870Z,88.70
2023-03-13T22:30:16.637Z,88.70
2023-03-13T22:32:43.300Z,88.70
2023-03-13T22:35:10.119Z,88.70
2023-03-13T22:37:36.690Z,88.60
2023-03-13T22:40:04.088Z,88.60
2023-03-13T22:42:30.668Z,88.60
2023-03-13T22:44:57.422Z,88.50
2023-03-13T22:47:25.677Z,88.60
2023-03-13T22:49:53.420Z,88.50
2023-03-13T22:52:21.269Z,88.50
2023-03-13T22:54:47.857Z,88.50
2023-03-13T22:57:14.508Z,88.50
2023-03-13T22:59:41.052Z,88.50
2023-03-13T23:02:07.582Z,88.50
2023-03-13T23:04:34.097Z,88.50
2023-03-13T23:07:00.710Z,88.50
2023-03-13T23:09:27.289Z,88.50
2023-03-13T23:11:53.869Z,88.40
2023-03-13T23:14:20.390Z,88.40
2023-03-13T23:16:47.089Z,88.40
2023-03-13T23:19:13.638Z,88.40
2023-03-13T23:21:40.270Z,88.40
2023-03-13T23:24:07.255Z,88.40
2023-03-13T23:26:33.914Z,88.30
2023-03-13T23:29:00.544Z,88.30
2023-03-13T23:31:27.138Z,88.30
2023-03-13T23:33:53.689Z,88.30
2023-03-13T23:36:20.272Z,88.30
2023-03-13T23:38:51.392Z,88.30
2023-03-13T23:41:18.624Z,88.30
2023-03-13T23:43:45.221Z,88.30
2023-03-13T23:46:17.636Z,89.10
2023-03-13T23:48:44.390Z,88.30
2023-03-13T23:51:11.105Z,88.20
2023-03-13T23:53:42.329Z,88.20
2023-03-13T23:56:10.054Z,88.20
2023-03-13T23:58:36.671Z,88.20
